Time;durP1;ratioP1;P1;durP2;ratioP2;P2;SDS_P1;SDS_P2;PMS_P1;PMS_P2;Temp;Humidity;BMP_temperature;BMP_pressure;BME280_temperature;BME280_humidity;BME280_pressure;Samples;Min_cycle;Max_cycle;Signal;HPM_P1;HPM_P2
2022/08/18 00:00:12;;;;;;;6.88;5.68;;;;;;;21.71;62.32;94746.31;5094641;28;20184;-70
2022/08/18 00:02:40;;;;;;;5.43;4.88;;;;;;;21.70;62.03;94743.94;5094641;28;20203;-70
2022/08/18 00:05:09;;;;;;;7.82;6.25;;;;;;;21.70;62.20;94743.94;5094390;28;20200;-69
2022/08/18 00:07:39;;;;;;;7.78;6.53;;;;;;;21.64;62.41;94749.25;5095061;28;20180;-70
2022/08/18 00:10:07;;;;;;;6.75;6.00;;;;;;;21.54;62.20;94745.47;5093949;28;20212;-72
2022/08/18 00:12:36;;;;;;;7.57;6.75;;;;;;;21.49;61.99;94748.75;5094929;28;20196;-71
2022/08/18 00:15:05;;;;;;;7.13;6.35;;;;;;;21.48;62.32;94749.19;5098300;28;20192;-71
2022/08/18 00:17:32;;;;;;;10.43;7.88;;;;;;;21.45;62.34;94747.25;5098736;28;20188;-71
2022/08/18 00:20:01;;;;;;;10.68;9.38;;;;;;;21.41;62.46;94747.31;5097386;28;20196;-71
2022/08/18 00:22:29;;;;;;;13.25;9.63;;;;;;;21.38;62.13;94748.97;5098493;28;20189;-71
2022/08/18 00:24:58;;;;;;;14.02;9.57;;;;;;;21.34;62.48;94751.06;5098568;28;20192;-71
2022/08/18 00:27:27;;;;;;;13.38;8.95;;;;;;;21.30;62.58;94753.09;5097618;28;20193;-71
2022/08/18 00:29:55;;;;;;;12.88;9.65;;;;;;;21.27;62.52;94750.38;5097412;28;20212;-72
2022/08/18 00:32:25;;;;;;;14.98;10.25;;;;;;;21.25;62.47;94753.63;5097476;28;20200;-71
2022/08/18 00:34:53;;;;;;;11.48;9.93;;;;;;;21.22;62.77;94743.25;5097441;28;20192;-71
2022/08/18 00:37:24;;;;;;;12.82;9.35;;;;;;;21.23;62.88;94753.25;5097525;28;20204;-71
2022/08/18 00:39:52;;;;;;;13.07;9.52;;;;;;;21.25;62.81;94758.44;5098911;28;20206;-71
2022/08/18 00:42:23;;;;;;;12.20;9.50;;;;;;;21.26;62.63;94760.81;5098431;28;20242;-71
2022/08/18 00:44:50;;;;;;;13.32;9.18;;;;;;;21.27;63.25;94759.56;5097888;28;20255;-71
2022/08/18 00:47:16;;;;;;;13.93;8.93;;;;;;;21.28;62.71;94764.00;5097387;28;20200;-71
2022/08/18 00:49:46;;;;;;;9.63;8.25;;;;;;;21.27;62.73;94756.78;5097900;28;20215;-73
2022/08/18 00:52:15;;;;;;;10.30;8.52;;;;;;;21.20;62.85;94762.50;5097982;28;20188;-73
2022/08/18 00:54:44;;;;;;;9.45;7.85;;;;;;;21.20;63.13;94758.94;5096625;28;20662;-72
2022/08/18 00:57:13;;;;;;;9.95;7.93;;;;;;;21.16;63.01;94762.59;5097616;28;20196;-72
2022/08/18 00:59:44;;;;;;;9.55;7.80;;;;;;;21.09;62.87;94765.50;5097505;28;20215;-72
2022/08/18 01:02:17;;;;;;;12.88;7.90;;;;;;;21.01;63.07;94769.69;5096866;28;20196;-72
2022/08/18 01:04:49;;;;;;;12.15;7.68;;;;;;;20.97;63.29;94766.16;5096621;28;20208;-71
2022/08/18 01:07:19;;;;;;;8.20;7.07;;;;;;;20.97;63.42;94762.56;5097360;28;20623;-71
2022/08/18 01:09:46;;;;;;;8.00;7.15;;;;;;;20.98;64.00;94770.53;5097636;28;20317;-71
2022/08/18 01:12:13;;;;;;;9.02;7.00;;;;;;;20.97;63.38;94759.75;5097612;28;20195;-71
2022/08/18 01:14:41;;;;;;;8.88;6.90;;;;;;;20.92;63.50;94767.44;5097251;28;20617;-70
2022/08/18 01:22:56;;;;;;;8.77;7.07;;;;;;;20.90;63.30;94760.66;5072871;28;20644;-71
2022/08/18 01:28:10;;;;;;;8.38;7.03;;;;;;;20.88;63.90;94765.91;5097072;28;20182;-72
2022/08/18 01:30:47;;;;;;;10.18;7.55;;;;;;;20.82;63.81;94767.63;5095954;28;20209;-72
2022/08/18 01:33:14;;;;;;;9.98;7.35;;;;;;;20.77;64.33;94768.09;5096909;28;20654;-72
2022/08/18 01:35:43;;;;;;;12.68;7.70;;;;;;;20.73;64.06;94767.38;5096802;28;20189;-72
2022/08/18 01:38:12;;;;;;;8.80;7.05;;;;;;;20.68;64.48;94766.63;5096460;28;20188;-72
2022/08/18 01:40:39;;;;;;;9.15;7.97;;;;;;;20.67;64.70;94767.06;5096434;28;20196;-72
2022/08/18 01:43:06;;;;;;;10.68;7.50;;;;;;;20.66;64.47;94765.47;5097023;28;20184;-72
2022/08/18 01:45:33;;;;;;;9.45;6.97;;;;;;;20.64;64.77;94765.91;5096755;28;20243;-72
2022/08/18 01:48:03;;;;;;;8.20;7.38;;;;;;;20.61;64.55;94758.34;5097194;28;20180;-72
2022/08/18 01:50:33;;;;;;;8.75;7.55;;;;;;;20.57;64.87;94768.03;5096763;28;20204;-72
2022/08/18 01:53:04;;;;;;;11.60;7.80;;;;;;;20.55;64.75;94767.66;5095881;28;20616;-72
2022/08/18 01:55:34;;;;;;;8.07;7.28;;;;;;;20.51;64.89;94764.91;5095622;28;20199;-70
2022/08/18 01:58:01;;;;;;;8.50;7.70;;;;;;;20.53;64.74;94762.50;5096348;28;20196;-71
2022/08/18 02:00:31;;;;;;;8.90;7.18;;;;;;;20.54;64.57;94757.66;5095906;28;20208;-70
2022/08/18 02:02:58;;;;;;;9.32;7.45;;;;;;;20.53;64.87;94759.69;5095807;28;20193;-71
2022/08/18 02:05:34;;;;;;;11.57;8.02;;;;;;;20.47;65.63;94764.16;5095898;28;20196;-73
2022/08/18 02:08:04;;;;;;;11.63;7.72;;;;;;;20.43;65.03;94769.00;5095593;28;20261;-72
2022/08/18 02:10:35;;;;;;;9.93;7.32;;;;;;;20.41;65.23;94765.88;5096396;28;20220;-72
2022/08/18 02:13:02;;;;;;;10.02;8.20;;;;;;;20.43;65.30;94769.81;5095156;28;20208;-72
2022/08/18 02:15:28;;;;;;;9.80;7.18;;;;;;;20.44;65.48;94767.78;5095592;28;20275;-72
2022/08/18 02:17:55;;;;;;;10.55;6.93;;;;;;;20.43;65.50;94767.00;5096255;28;20185;-72
2022/08/18 02:20:22;;;;;;;9.10;6.57;;;;;;;20.44;65.57;94765.81;5095540;28;20199;-72
2022/08/18 02:22:49;;;;;;;9.65;6.60;;;;;;;20.42;65.42;94768.22;5096018;28;20177;-71
2022/08/18 02:25:16;;;;;;;7.07;6.13;;;;;;;20.37;65.86;94771.53;5096080;28;20181;-71
2022/08/18 02:27:46;;;;;;;8.38;6.53;;;;;;;20.33;65.32;94762.34;5095761;28;20627;-70
2022/08/18 02:30:15;;;;;;;6.53;5.93;;;;;;;20.29;65.48;94760.84;5095068;28;20216;-70
2022/08/18 02:32:43;;;;;;;7.45;6.70;;;;;;;20.22;65.84;94761.72;5095319;28;20188;-69
2022/08/18 02:35:11;;;;;;;10.52;6.75;;;;;;;20.16;65.77;94753.03;5095236;28;20207;-70
2022/08/18 02:37:38;;;;;;;7.90;6.22;;;;;;;20.16;66.25;94755.81;5094464;28;20204;-72
2022/08/18 02:40:08;;;;;;;8.00;6.70;;;;;;;20.16;66.21;94766.22;5094963;28;20204;-71
2022/08/18 02:42:37;;;;;;;8.77;6.72;;;;;;;20.18;65.98;94761.00;5095539;28;20597;-71
2022/08/18 02:45:07;;;;;;;7.63;6.93;;;;;;;20.18;66.08;94769.38;5094767;28;20319;-71
2022/08/18 02:47:34;;;;;;;7.53;6.15;;;;;;;20.14;66.05;94765.84;5095830;28;20192;-70
2022/08/18 02:50:01;;;;;;;10.35;6.20;;;;;;;20.14;66.14;94758.25;5095654;28;20205;-71
2022/08/18 02:52:32;;;;;;;8.38;5.90;;;;;;;20.12;66.14;94768.28;5095830;28;20195;-71
2022/08/18 02:55:01;;;;;;;7.93;7.13;;;;;;;20.08;66.01;94761.94;5095508;28;20619;-70
2022/08/18 02:57:31;;;;;;;7.10;6.40;;;;;;;20.05;65.96;94766.38;5095448;28;20564;-70
2022/08/18 03:00:01;;;;;;;8.00;6.18;;;;;;;20.07;66.68;94768.75;5095609;28;20184;-70
2022/08/18 03:02:30;;;;;;;7.88;6.80;;;;;;;20.04;65.79;94767.59;5094754;28;20322;-72
2022/08/18 03:04:59;;;;;;;8.68;6.90;;;;;;;19.94;66.08;94769.34;5094809;28;20207;-70
2022/08/18 03:07:25;;;;;;;8.00;7.20;;;;;;;19.95;66.23;94764.53;5095320;28;20196;-70
2022/08/18 03:09:54;;;;;;;7.15;6.50;;;;;;;19.98;66.61;94782.50;5095327;28;20208;-71
2022/08/18 03:12:24;;;;;;;7.43;6.78;;;;;;;19.94;66.50;94774.16;5094558;28;20574;-70
2022/08/18 03:14:51;;;;;;;8.15;6.55;;;;;;;19.92;66.97;94768.94;5095158;28;20199;-70
2022/08/18 03:17:18;;;;;;;8.93;6.60;;;;;;;19.90;66.73;94774.19;5095410;28;20196;-70
2022/08/18 03:19:47;;;;;;;11.43;6.95;;;;;;;19.90;66.35;94776.19;5095336;28;20183;-70
2022/08/18 03:22:14;;;;;;;7.90;7.10;;;;;;;19.84;66.41;94778.66;5095067;28;20184;-70
2022/08/18 03:24:41;;;;;;;9.75;7.32;;;;;;;19.82;66.66;94785.88;5095585;28;20196;-71
2022/08/18 03:27:08;;;;;;;7.78;7.07;;;;;;;19.77;66.44;94780.75;5094030;28;20200;-70
2022/08/18 03:29:36;;;;;;;8.68;7.30;;;;;;;19.78;66.94;94787.94;5095265;28;20196;-71
2022/08/18 03:32:05;;;;;;;9.88;7.05;;;;;;;19.76;66.64;94779.19;5095172;28;20213;-71
2022/08/18 03:34:33;;;;;;;9.43;7.35;;;;;;;19.74;66.51;94779.59;5094989;28;20196;-71
2022/08/18 03:37:01;;;;;;;8.10;7.30;;;;;;;19.76;66.72;94781.97;5094685;28;20193;-70
2022/08/18 03:39:28;;;;;;;7.28;6.55;;;;;;;19.73;66.90;94780.03;5094169;28;20231;-70
2022/08/18 03:41:58;;;;;;;10.82;6.95;;;;;;;19.73;66.76;94778.00;5095157;28;20190;-70
2022/08/18 03:44:27;;;;;;;8.48;7.28;;;;;;;19.66;67.04;94775.31;5093939;28;20228;-71
2022/08/18 03:46:56;;;;;;;9.13;7.15;;;;;;;19.59;66.87;94783.75;5094513;28;20201;-71
2022/08/18 03:49:23;;;;;;;12.13;8.20;;;;;;;19.55;67.03;94794.19;5079764;28;20211;-71
2022/08/18 03:51:51;;;;;;;7.90;7.13;;;;;;;19.53;67.17;94782.63;5098172;28;20250;-71
2022/08/18 03:54:24;;;;;;;9.25;7.30;;;;;;;19.57;67.22;94781.38;5098546;28;20188;-71
2022/08/18 03:56:53;;;;;;;10.10;7.20;;;;;;;19.56;67.53;94784.59;5098406;28;20543;-71
2022/08/18 03:59:23;;;;;;;8.57;7.50;;;;;;;19.54;67.57;94798.22;5099195;28;20199;-70
2022/08/18 04:01:54;;;;;;;9.32;7.35;;;;;;;19.53;67.51;94793.81;5098980;28;20188;-70
2022/08/18 04:04:24;;;;;;;13.77;8.05;;;;;;;19.52;67.69;94793.00;5098677;28;20192;-71
2022/08/18 04:06:54;;;;;;;11.25;8.15;;;;;;;19.53;67.76;94796.59;5098986;28;20185;-72
2022/08/18 04:09:26;;;;;;;10.18;7.75;;;;;;;19.56;67.28;94804.16;5098534;28;20203;-69
2022/08/18 04:11:53;;;;;;;9.85;7.40;;;;;;;19.57;67.83;94800.16;5097810;28;20297;-69
2022/08/18 04:14:24;;;;;;;9.13;7.25;;;;;;;19.60;68.19;94805.69;5097916;28;20193;-69
2022/08/18 04:16:52;;;;;;;9.25;7.53;;;;;;;19.65;68.02;94805.28;5098936;28;20192;-68
2022/08/18 04:19:20;;;;;;;13.60;7.90;;;;;;;19.67;67.91;94811.25;5098697;28;20203;-68
2022/08/18 04:21:46;;;;;;;9.38;7.95;;;;;;;19.68;68.52;94820.41;5098461;28;20628;-68
2022/08/18 04:24:14;;;;;;;11.40;8.77;;;;;;;19.70;68.47;94813.22;5098534;28;20204;-68
2022/08/18 04:26:45;;;;;;;12.40;8.40;;;;;;;19.73;68.03;94816.38;5098811;28;20611;-68
2022/08/18 04:29:13;;;;;;;11.40;8.25;;;;;;;19.75;68.22;94819.53;5098635;28;20192;-69
2022/08/18 04:31:41;;;;;;;10.30;8.55;;;;;;;19.79;68.21;94823.09;5098445;28;20204;-68
2022/08/18 04:34:09;;;;;;;16.17;9.10;;;;;;;19.76;68.02;94821.94;5097378;28;20203;-68
2022/08/18 04:36:37;;;;;;;14.80;9.35;;;;;;;19.78;67.77;94824.31;5097348;28;20208;-68
2022/08/18 04:39:06;;;;;;;17.38;9.45;;;;;;;19.80;68.22;94828.28;5097679;28;20281;-69
2022/08/18 04:41:33;;;;;;;14.43;8.88;;;;;;;19.83;68.04;94824.66;5098022;28;20513;-69
2022/08/18 04:44:07;;;;;;;10.65;8.43;;;;;;;19.88;67.81;94823.38;5096966;28;20235;-68
2022/08/18 04:46:38;;;;;;;15.55;8.90;;;;;;;19.90;68.16;94826.56;5097816;28;20189;-69
2022/08/18 04:49:05;;;;;;;13.15;8.45;;;;;;;19.89;67.68;94827.78;5097377;28;20200;-69
2022/08/18 04:51:32;;;;;;;14.35;8.32;;;;;;;19.91;67.54;94825.34;5097936;28;20631;-69
2022/08/18 04:53:59;;;;;;;11.48;8.60;;;;;;;19.96;67.78;94827.69;5097977;28;20185;-69
2022/08/18 04:56:32;;;;;;;13.10;8.45;;;;;;;20.02;67.70;94822.41;5097586;28;20246;-69
2022/08/18 04:59:02;;;;;;;8.50;7.57;;;;;;;20.08;67.71;94829.13;5096962;28;20234;-69
2022/08/18 05:01:33;;;;;;;9.85;8.10;;;;;;;20.12;67.42;94830.69;5097620;28;20534;-69
2022/08/18 05:04:01;;;;;;;9.70;8.73;;;;;;;20.18;67.35;94833.78;5097769;28;20207;-69
2022/08/18 05:06:30;;;;;;;9.00;8.07;;;;;;;20.21;66.85;94830.16;5097903;28;20188;-69
2022/08/18 05:08:59;;;;;;;10.57;8.60;;;;;;;20.24;66.58;94834.13;5097763;28;20198;-68
2022/08/18 05:11:28;;;;;;;9.85;8.85;;;;;;;20.27;66.41;94830.50;5096251;28;20232;-68
2022/08/18 05:13:56;;;;;;;11.27;10.02;;;;;;;20.27;66.53;94836.88;5096404;28;20200;-68
2022/08/18 05:16:28;;;;;;;10.05;8.88;;;;;;;20.29;66.39;94831.63;5097624;28;20192;-68
2022/08/18 05:18:58;;;;;;;9.15;8.25;;;;;;;20.35;66.38;94835.56;5097335;28;20200;-68
2022/08/18 05:21:26;;;;;;;9.43;8.18;;;;;;;20.40;66.45;94837.06;5097418;28;20184;-68
2022/08/18 05:23:53;;;;;;;9.52;8.48;;;;;;;20.45;66.41;94839.44;5096182;28;20532;-68
2022/08/18 05:26:20;;;;;;;9.75;7.97;;;;;;;20.48;65.77;94849.78;5097058;28;20207;-68
2022/08/18 05:28:47;;;;;;;9.15;8.30;;;;;;;20.52;65.43;94847.75;5096398;28;20196;-68
2022/08/18 05:31:15;;;;;;;9.50;8.45;;;;;;;20.56;66.11;94847.69;5096262;28;20556;-68
2022/08/18 05:33:48;;;;;;;12.20;10.35;;;;;;;20.60;65.64;94837.22;5096331;28;20188;-68
2022/08/18 05:36:27;;;;;;;11.35;9.75;;;;;;;20.64;65.50;94846.38;5096140;28;20200;-68
2022/08/18 05:38:58;;;;;;;8.82;8.02;;;;;;;20.66;65.43;94846.72;5096204;28;20196;-68
2022/08/18 05:41:28;;;;;;;8.25;7.45;;;;;;;20.71;64.85;94843.47;5097092;28;20204;-68
2022/08/18 05:43:57;;;;;;;7.40;6.70;;;;;;;20.76;64.16;94839.38;5095708;28;20240;-68
2022/08/18 05:46:34;;;;;;;7.43;6.88;;;;;;;20.79;63.65;94839.31;5096042;28;20210;-68
2022/08/18 05:49:04;;;;;;;7.57;6.88;;;;;;;20.84;63.59;94840.84;5096971;28;20184;-68
2022/08/18 05:51:34;;;;;;;7.68;6.90;;;;;;;20.87;63.56;94842.81;5096477;28;20521;-68
2022/08/18 05:56:47;;;;;;;7.55;6.72;;;;;;;21.00;63.23;94840.19;5095528;28;20275;-69
2022/08/18 05:59:18;;;;;;;8.40;6.40;;;;;;;21.04;63.80;94846.53;5095721;28;20608;-68
2022/08/18 06:01:51;;;;;;;7.25;6.55;;;;;;;21.08;63.61;94839.66;5095423;28;20200;-68
2022/08/18 06:04:26;;;;;;;7.10;6.40;;;;;;;21.15;63.26;94836.72;5095951;28;20199;-68
2022/08/18 06:06:56;;;;;;;7.47;6.88;;;;;;;21.23;63.32;94831.78;5096963;28;20196;-68
2022/08/18 06:09:32;;;;;;;7.40;6.65;;;;;;;21.30;63.08;94845.66;5096529;28;20234;-68
2022/08/18 06:12:07;;;;;;;8.32;7.60;;;;;;;21.35;62.82;94839.63;5095801;28;20234;-68
2022/08/18 06:14:37;;;;;;;9.38;7.40;;;;;;;21.42;62.58;94838.66;5095681;28;20188;-68
2022/08/18 06:17:12;;;;;;;9.45;7.95;;;;;;;21.48;62.70;94834.16;5095934;28;20223;-68
2022/08/18 06:19:45;;;;;;;9.40;8.40;;;;;;;21.53;62.55;94835.66;5095638;28;20195;-67
2022/08/18 06:22:19;;;;;;;8.95;7.43;;;;;;;21.58;63.13;94838.78;5095400;28;20193;-68
2022/08/18 06:24:51;;;;;;;8.20;7.25;;;;;;;21.65;62.98;94843.47;5096257;28;20203;-68
2022/08/18 06:27:24;;;;;;;7.00;6.40;;;;;;;21.68;62.83;94837.00;5094991;28;20600;-68
2022/08/18 06:30:03;;;;;;;9.70;7.60;;;;;;;21.75;62.70;94844.47;5095393;28;20188;-68
2022/08/18 06:32:43;;;;;;;7.03;6.38;;;;;;;21.81;62.56;94843.53;5096123;28;20284;-68
2022/08/18 06:35:20;;;;;;;7.97;7.18;;;;;;;21.88;62.51;94837.78;5095353;28;20203;-68
2022/08/18 06:40:39;;;;;;;8.40;7.18;;;;;;;21.99;62.53;94839.59;5095035;28;20200;-68
2022/08/18 06:43:10;;;;;;;7.75;7.03;;;;;;;22.04;62.32;94837.06;5096113;28;20189;-68
2022/08/18 06:45:38;;;;;;;8.15;7.03;;;;;;;22.11;62.30;94836.94;5095727;28;20694;-68
2022/08/18 06:48:11;;;;;;;9.55;8.32;;;;;;;22.17;61.87;94840.03;5095942;28;20196;-68
2022/08/18 06:50:45;;;;;;;8.45;6.90;;;;;;;22.23;61.54;94834.72;5095896;28;20204;-68
2022/08/18 06:53:15;;;;;;;8.25;7.55;;;;;;;22.28;61.39;94823.75;5096017;28;20249;-68
2022/08/18 06:55:43;;;;;;;10.60;7.88;;;;;;;22.36;60.96;94824.38;5094810;28;20196;-68
2022/08/18 06:58:25;;;;;;;7.68;6.97;;;;;;;22.44;60.63;94827.81;5095806;28;20195;-68
2022/08/18 07:00:58;;;;;;;7.78;7.07;;;;;;;22.50;60.38;94821.25;5095828;28;20182;-68
2022/08/18 07:03:42;;;;;;;7.72;6.35;;;;;;;22.61;60.02;94823.00;5095610;28;20180;-68
2022/08/18 07:06:13;;;;;;;6.88;6.32;;;;;;;22.68;59.62;94820.81;5095697;28;20195;-68
2022/08/18 07:08:42;;;;;;;7.50;6.78;;;;;;;22.73;59.30;94811.88;5095280;28;20192;-68
2022/08/18 07:11:14;;;;;;;7.90;6.97;;;;;;;22.80;58.65;94811.72;5095653;28;20212;-68
2022/08/18 07:13:44;;;;;;;7.40;6.57;;;;;;;22.85;58.57;94816.00;5094348;28;20211;-68
2022/08/18 07:16:24;;;;;;;8.55;7.63;;;;;;;22.91;58.27;94814.25;5094962;28;20192;-68
2022/08/18 07:18:53;;;;;;;7.25;6.55;;;;;;;22.98;57.89;94802.84;5095735;28;20196;-68
2022/08/18 07:21:30;;;;;;;7.70;6.93;;;;;;;23.03;57.70;94805.16;5095477;28;20181;-68
2022/08/18 07:23:59;;;;;;;7.78;7.18;;;;;;;23.08;57.70;94805.84;5094378;28;20210;-68
2022/08/18 07:26:28;;;;;;;7.53;6.82;;;;;;;23.14;57.62;94804.88;5094515;28;20200;-68
2022/08/18 07:29:13;;;;;;;8.02;7.10;;;;;;;23.22;57.20;94800.63;5094347;28;20200;-68
2022/08/18 07:31:45;;;;;;;7.10;6.50;;;;;;;23.32;57.13;94807.22;5094325;28;20219;-68
2022/08/18 07:34:14;;;;;;;7.70;7.00;;;;;;;23.39;56.99;94800.63;5094990;28;20192;-68
2022/08/18 07:36:56;;;;;;;7.68;6.82;;;;;;;23.44;56.83;94802.88;5094078;28;20196;-68
2022/08/18 07:39:27;;;;;;;7.32;6.60;;;;;;;23.50;56.23;94801.13;5094459;28;20204;-68
2022/08/18 07:41:59;;;;;;;8.90;7.22;;;;;;;23.57;56.09;94791.66;5095288;28;20189;-68
2022/08/18 07:44:34;;;;;;;7.43;6.63;;;;;;;23.70;55.78;94801.78;5094338;28;20311;-69
2022/08/18 07:47:07;;;;;;;6.97;6.38;;;;;;;23.76;55.57;94802.81;5094993;28;20604;-68
2022/08/18 07:49:35;;;;;;;7.63;6.93;;;;;;;23.81;55.84;94806.34;5093975;28;20250;-68
2022/08/18 07:52:09;;;;;;;8.02;7.22;;;;;;;23.87;55.47;94799.72;5094157;28;20235;-68
2022/08/18 07:54:51;;;;;;;7.82;7.00;;;;;;;23.94;55.63;94810.00;5094447;28;20230;-68
2022/08/18 07:57:27;;;;;;;8.18;7.30;;;;;;;24.00;54.86;94802.53;5095024;28;20244;-69
2022/08/18 08:00:01;;;;;;;7.25;6.55;;;;;;;24.08;55.25;94803.16;5095025;28;20176;-68
2022/08/18 08:02:37;;;;;;;8.98;8.18;;;;;;;24.16;54.72;94807.34;5094669;28;20597;-68
2022/08/18 08:05:10;;;;;;;7.75;7.05;;;;;;;24.21;55.08;94804.75;5094145;28;20294;-68
2022/08/18 08:07:44;;;;;;;9.43;7.03;;;;;;;24.34;55.09;94806.81;5094042;28;20299;-68
2022/08/18 08:10:32;;;;;;;7.50;6.80;;;;;;;24.46;54.39;94806.03;5094908;28;20257;-68
2022/08/18 08:13:08;;;;;;;7.35;6.63;;;;;;;24.58;52.84;94804.47;5093925;28;20220;-68
2022/08/18 08:15:44;;;;;;;6.95;6.35;;;;;;;24.63;52.26;94801.09;5094976;28;20189;-68
2022/08/18 08:18:14;;;;;;;7.65;6.82;;;;;;;24.70;52.32;94801.66;5094920;28;20180;-68
2022/08/18 08:20:47;;;;;;;7.38;6.78;;;;;;;24.82;52.64;94799.28;5094390;28;20203;-68
2022/08/18 08:23:26;;;;;;;6.93;6.32;;;;;;;24.91;50.68;94788.09;5094879;28;20184;-68
2022/08/18 08:26:03;;;;;;;6.88;6.00;;;;;;;25.06;49.09;94791.25;5093949;28;20192;-68
2022/08/18 08:28:40;;;;;;;8.60;6.80;;;;;;;25.19;48.22;94792.03;5094475;28;20184;-68
2022/08/18 08:31:11;;;;;;;8.70;6.63;;;;;;;25.24;48.34;94793.47;5094760;28;20192;-68
2022/08/18 08:33:43;;;;;;;7.78;7.00;;;;;;;25.36;48.09;94781.38;5094747;28;20195;-68
2022/08/18 08:36:13;;;;;;;6.93;6.20;;;;;;;25.40;49.57;94787.69;5097972;28;20192;-68
2022/08/18 08:38:45;;;;;;;7.97;7.00;;;;;;;25.58;46.45;94787.84;5098761;28;20192;-67
2022/08/18 08:41:13;;;;;;;8.20;6.63;;;;;;;25.78;45.80;94787.56;5098401;28;20192;-67
2022/08/18 08:43:44;;;;;;;6.55;5.93;;;;;;;25.87;45.89;94796.13;5097934;28;20236;-68
2022/08/18 08:46:14;;;;;;;6.72;5.50;;;;;;;25.90;47.18;94783.13;5097448;28;20201;-68
2022/08/18 08:48:44;;;;;;;6.35;5.85;;;;;;;25.95;47.21;94781.72;5098059;28;20314;-68
2022/08/18 08:51:31;;;;;;;6.03;5.45;;;;;;;26.09;46.65;94781.19;5096873;28;20537;-67
2022/08/18 08:54:04;;;;;;;7.25;5.75;;;;;;;26.16;45.48;94789.41;5098044;28;20195;-68
2022/08/18 08:56:35;;;;;;;6.65;5.88;;;;;;;26.24;44.98;94792.75;5097988;28;20184;-67
2022/08/18 08:59:05;;;;;;;6.38;5.90;;;;;;;26.35;43.37;94793.91;5098081;28;20192;-68
2022/08/18 09:01:35;;;;;;;6.70;5.93;;;;;;;26.42;43.89;94787.97;5096934;28;20249;-68
2022/08/18 09:04:08;;;;;;;5.35;4.95;;;;;;;26.52;44.33;94777.53;5097887;28;20197;-68
2022/08/18 09:06:42;;;;;;;5.68;5.20;;;;;;;26.59;43.76;94776.47;5096848;28;20204;-68
2022/08/18 09:09:25;;;;;;;5.60;5.10;;;;;;;26.72;44.69;94777.13;5097074;28;20220;-67
2022/08/18 09:12:17;;;;;;;6.40;5.80;;;;;;;26.91;44.27;94780.03;5097583;28;20212;-68
2022/08/18 09:14:59;;;;;;;6.88;6.22;;;;;;;27.11;42.99;94774.75;5096663;28;20200;-68
2022/08/18 09:18:00;;;;;;;6.38;5.78;;;;;;;27.22;41.97;94769.44;5096621;28;20509;-67
2022/08/18 09:20:39;;;;;;;5.78;5.07;;;;;;;27.29;42.45;94755.00;5097544;28;20188;-68
2022/08/18 09:23:09;;;;;;;5.68;5.18;;;;;;;27.43;41.02;94758.47;5097431;28;20191;-68
2022/08/18 09:25:49;;;;;;;5.65;4.93;;;;;;;27.50;42.72;94756.13;5097527;28;20176;-67
2022/08/18 09:28:18;;;;;;;6.93;6.32;;;;;;;27.63;42.08;94764.44;5097621;28;20238;-67
2022/08/18 09:30:48;;;;;;;6.03;5.53;;;;;;;27.76;40.99;94761.50;5097310;28;20192;-67
2022/08/18 09:33:23;;;;;;;5.70;5.22;;;;;;;27.77;41.32;94757.41;5097071;28;20530;-67
2022/08/18 09:36:07;;;;;;;5.32;4.85;;;;;;;27.92;37.92;94751.88;5096242;28;20203;-67
2022/08/18 09:41:32;;;;;;;5.88;4.78;;;;;;;28.03;37.46;94741.66;5097340;28;20287;-67
2022/08/18 09:44:11;;;;;;;6.25;5.20;;;;;;;28.10;37.64;94751.84;5095708;28;20312;-68
2022/08/18 09:46:59;;;;;;;5.63;5.13;;;;;;;28.18;38.07;94749.47;5095769;28;20188;-68
2022/08/18 09:49:52;;;;;;;5.13;4.63;;;;;;;28.18;40.04;94743.78;5089930;28;20212;-68
2022/08/18 09:52:55;;;;;;;5.55;5.07;;;;;;;28.14;39.72;94743.19;5096740;28;20220;-68
2022/08/18 09:55:56;;;;;;;5.60;5.10;;;;;;;28.22;39.78;94738.78;5096995;28;20192;-67
2022/08/18 09:58:57;;;;;;;5.88;5.30;;;;;;;28.35;39.07;94736.50;5034997;28;20213;-68
2022/08/18 10:01:36;;;;;;;6.28;5.10;;;;;;;28.38;38.74;94729.13;5034696;28;20205;-67
2022/08/18 10:04:34;;;;;;;5.85;5.35;;;;;;;28.40;38.05;94716.06;5034695;28;20304;-67
2022/08/18 10:07:17;;;;;;;6.18;5.63;;;;;;;28.48;39.19;94725.00;5034694;28;20204;-67
2022/08/18 10:09:59;;;;;;;5.68;5.22;;;;;;;28.54;39.43;94720.22;5018075;28;20210;-67
2022/08/18 10:12:44;;;;;;;5.72;5.20;;;;;;;28.68;39.92;94724.44;5034312;28;20230;-67
2022/08/18 10:15:28;;;;;;;7.88;6.18;;;;;;;28.82;39.55;94720.91;5034437;28;20285;-67
2022/08/18 10:18:08;;;;;;;6.07;5.45;;;;;;;28.89;37.20;94711.25;5034355;28;20201;-67
2022/08/18 10:20:45;;;;;;;5.63;5.20;;;;;;;28.96;37.18;94710.88;5034406;28;20186;-67
2022/08/18 10:23:12;;;;;;;5.63;5.13;;;;;;;28.96;38.34;94706.00;5017664;28;20297;-67
2022/08/18 10:25:45;;;;;;;5.93;5.20;;;;;;;29.10;38.29;94715.88;5017731;28;20309;-67
2022/08/18 10:29:01;;;;;;;5.60;5.10;;;;;;;29.18;38.77;94711.41;5037272;28;20195;-67
2022/08/18 10:31:32;;;;;;;5.47;4.97;;;;;;;29.31;36.83;94705.50;5049053;28;20216;-67
2022/08/18 10:34:05;;;;;;;5.65;5.03;;;;;;;29.40;35.50;94711.09;5095237;28;20196;-67
2022/08/18 10:36:37;;;;;;;5.57;5.05;;;;;;;29.48;36.17;94694.44;5096010;28;20193;-67
2022/08/18 10:39:05;;;;;;;5.65;5.15;;;;;;;29.50;35.44;94689.09;5095409;28;20196;-67
2022/08/18 10:41:34;;;;;;;5.18;4.78;;;;;;;29.53;36.82;94690.94;5095222;28;20188;-67
2022/08/18 10:44:03;;;;;;;5.07;4.68;;;;;;;29.63;35.39;94698.16;5094818;28;20227;-67
2022/08/18 10:46:35;;;;;;;8.73;5.85;;;;;;;29.74;34.07;94689.06;5095656;28;20200;-67
2022/08/18 10:49:16;;;;;;;5.88;5.30;;;;;;;29.79;35.53;94684.75;5095673;28;20223;-67
2022/08/18 10:51:54;;;;;;;5.78;5.15;;;;;;;29.85;36.14;94692.13;5094635;28;20203;-67
2022/08/18 10:54:31;;;;;;;5.82;5.32;;;;;;;29.90;34.76;94685.72;5095072;28;20192;-67
2022/08/18 10:57:08;;;;;;;5.55;4.85;;;;;;;29.79;33.66;94690.44;5094380;28;20200;-67
2022/08/18 10:59:41;;;;;;;5.60;5.15;;;;;;;29.70;34.72;94689.25;5095787;28;20191;-67
2022/08/18 11:02:22;;;;;;;5.05;4.63;;;;;;;29.64;34.84;94684.75;5095482;28;20237;-67
2022/08/18 11:04:51;;;;;;;4.75;4.35;;;;;;;29.80;34.97;94672.88;5095218;28;20303;-67
2022/08/18 11:07:21;;;;;;;5.30;4.90;;;;;;;29.83;33.17;94668.28;5095677;28;20184;-67
2022/08/18 11:09:50;;;;;;;5.18;4.78;;;;;;;29.72;35.45;94675.34;5095543;28;20181;-67
2022/08/18 11:12:45;;;;;;;5.05;4.65;;;;;;;29.76;34.46;94669.44;5094336;28;20216;-67
2022/08/18 11:15:19;;;;;;;4.70;4.30;;;;;;;29.83;33.76;94663.38;5094628;28;20225;-67
2022/08/18 11:18:05;;;;;;;5.30;4.90;;;;;;;29.82;34.27;94673.19;5095127;28;20184;-67
2022/08/18 11:20:32;;;;;;;4.90;4.50;;;;;;;29.92;32.87;94669.00;5094185;28;20196;-67
2022/08/18 11:23:01;;;;;;;5.32;4.82;;;;;;;29.99;33.40;94670.63;5095218;28;20177;-67
2022/08/18 11:25:31;;;;;;;6.00;5.50;;;;;;;30.08;32.95;94661.22;5095401;28;20188;-67
2022/08/18 11:28:02;;;;;;;5.43;4.60;;;;;;;30.17;34.07;94664.00;5095164;28;20199;-68
2022/08/18 11:30:32;;;;;;;4.82;4.43;;;;;;;30.27;33.98;94667.53;5094983;28;20253;-67
2022/08/18 11:33:00;;;;;;;5.22;4.82;;;;;;;30.21;34.21;94664.56;5094658;28;20559;-67
2022/08/18 11:35:30;;;;;;;5.32;4.75;;;;;;;30.24;32.92;94666.44;5095330;28;20200;-67
2022/08/18 11:37:59;;;;;;;5.03;4.55;;;;;;;30.13;33.24;94664.16;5094319;28;20196;-67
2022/08/18 11:40:33;;;;;;;4.53;4.22;;;;;;;30.03;33.70;94667.59;5095375;28;20212;-67
2022/08/18 11:43:02;;;;;;;4.70;4.40;;;;;;;30.03;33.54;94662.72;5095130;28;20219;-67
2022/08/18 11:45:51;;;;;;;4.97;4.63;;;;;;;30.15;33.27;94663.69;5093676;28;20232;-67
2022/08/18 11:48:21;;;;;;;5.20;4.80;;;;;;;30.35;32.33;94654.47;5094851;28;20531;-67
2022/08/18 11:51:01;;;;;;;5.18;4.70;;;;;;;30.34;32.47;94650.84;5095097;28;20199;-67
2022/08/18 11:53:41;;;;;;;5.75;5.03;;;;;;;30.25;33.87;94650.97;5094757;28;20242;-67
2022/08/18 11:56:23;;;;;;;5.63;5.10;;;;;;;30.35;34.18;94646.72;5094102;28;20300;-67
2022/08/18 11:58:52;;;;;;;5.65;5.22;;;;;;;30.44;32.21;94645.81;5095084;28;20184;-67
2022/08/18 12:01:37;;;;;;;5.70;5.15;;;;;;;30.56;32.50;94636.16;5095002;28;20216;-67
2022/08/18 12:04:21;;;;;;;5.57;5.18;;;;;;;30.64;32.58;94640.16;5093674;28;20184;-67
2022/08/18 12:06:59;;;;;;;4.63;4.22;;;;;;;30.60;32.65;94639.59;5095158;28;20249;-67
2022/08/18 12:09:38;;;;;;;5.97;5.47;;;;;;;30.55;33.74;94639.53;5094829;28;20196;-67
2022/08/18 12:12:13;;;;;;;6.00;5.40;;;;;;;30.58;33.61;94635.69;5098537;28;20184;-67